createdAt,value
2023-02-19T00:01:46.889Z,65.72
2023-02-19T00:04:16.463Z,65.16
2023-02-19T00:06:46.970Z,65.49
2023-02-19T00:09:19.289Z,65.17
2023-02-19T00:11:47.988Z,65.16
2023-02-19T00:14:17.818Z,65.49
2023-02-19T00:16:46.093Z,65.47
2023-02-19T00:19:15.924Z,65.62
2023-02-19T00:22:15.095Z,66.18
2023-02-19T00:24:49.030Z,67.02
2023-02-19T00:27:17.500Z,67.13
2023-02-19T00:29:45.722Z,66.96
2023-02-19T00:32:13.963Z,66.87
2023-02-19T00:34:42.243Z,66.39
2023-02-19T00:37:10.489Z,65.91
2023-02-19T00:39:49.984Z,65.59
2023-02-19T00:42:18.178Z,65.04
2023-02-19T00:44:46.381Z,64.37
2023-02-19T00:47:14.558Z,64.36
2023-02-19T00:49:42.830Z,64.19
2023-02-19T00:52:11.066Z,63.47
2023-02-19T00:54:39.317Z,62.70
2023-02-19T00:57:09.068Z,63.02
2023-02-19T00:59:37.438Z,63.19
2023-02-19T01:02:05.729Z,63.19
2023-02-19T01:04:33.984Z,63.36
2023-02-19T01:07:30.003Z,63.65
2023-02-19T01:10:00.208Z,63.49
2023-02-19T01:12:29.839Z,62.98
2023-02-19T01:14:58.056Z,63.02
2023-02-19T01:17:26.329Z,63.20
2023-02-19T01:19:54.709Z,63.29
2023-02-19T01:22:22.836Z,63.22
2023-02-19T01:24:51.058Z,63.57
2023-02-19T01:27:19.282Z,63.86
2023-02-19T01:29:49.000Z,64.36
2023-02-19T01:32:17.160Z,65.21
2023-02-19T01:34:45.505Z,65.61
2023-02-19T01:37:13.616Z,65.72
2023-02-19T01:39:48.899Z,65.95
2023-02-19T01:42:18.038Z,66.29
2023-02-19T01:45:25.601Z,66.47
2023-02-19T01:48:22.244Z,66.46
2023-02-19T01:50:53.579Z,66.37
2023-02-19T01:53:28.272Z,66.51
2023-02-19T01:56:00.485Z,66.58
2023-02-19T01:59:18.776Z,67.11
2023-02-19T02:01:47.372Z,67.62
2023-02-19T02:04:21.137Z,68.15
2023-02-19T02:06:53.664Z,68.42
2023-02-19T02:09:57.773Z,68.43
2023-02-19T02:12:26.254Z,68.81
2023-02-19T02:14:54.512Z,69.00
2023-02-19T02:17:27.871Z,69.21
2023-02-19T02:20:13.272Z,68.83
2023-02-19T02:22:46.106Z,69.12
2023-02-19T02:25:41.458Z,69.88
2023-02-19T02:28:29.846Z,70.38
2023-02-19T02:31:03.386Z,70.59
2023-02-19T02:33:37.784Z,70.61
2023-02-19T02:36:09.066Z,70.95
2023-02-19T02:38:45.115Z,71.49
2023-02-19T02:41:16.275Z,71.76
2023-02-19T02:43:44.488Z,71.96
2023-02-19T02:46:17.074Z,72.56
2023-02-19T02:48:54.018Z,72.78
2023-02-19T02:51:27.967Z,72.71
2023-02-19T02:54:29.189Z,72.26
2023-02-19T02:57:00.640Z,71.89
2023-02-19T02:59:37.031Z,71.62
2023-02-19T03:02:12.023Z,71.49
2023-02-19T03:05:02.234Z,71.45
2023-02-19T03:07:37.244Z,71.34
2023-02-19T03:10:08.644Z,71.24
2023-02-19T03:12:56.368Z,70.59
2023-02-19T03:15:43.354Z,70.41
2023-02-19T03:18:33.080Z,70.27
2023-02-19T03:21:02.927Z,70.16
2023-02-19T03:23:53.446Z,69.67
2023-02-19T03:26:23.003Z,69.37
2023-02-19T03:29:12.706Z,69.05
2023-02-19T03:31:46.506Z,68.89
2023-02-19T03:34:21.421Z,68.68
2023-02-19T03:36:54.709Z,68.58
2023-02-19T03:39:25.700Z,68.68
2023-02-19T03:42:03.347Z,68.60
2023-02-19T03:44:42.116Z,68.16
2023-02-19T03:47:16.898Z,68.09
2023-02-19T03:49:53.156Z,67.93
2023-02-19T03:52:32.006Z,67.83
2023-02-19T03:59:25.147Z,68.48
2023-02-19T04:01:57.925Z,69.15
2023-02-19T04:04:30.808Z,69.52
2023-02-19T04:07:00.642Z,70.58
2023-02-19T04:09:37.732Z,70.84
2023-02-19T04:12:14.182Z,71.25
2023-02-19T04:14:47.030Z,71.75
2023-02-19T04:17:23.562Z,72.08
2023-02-19T04:19:55.776Z,72.38
2023-02-19T04:22:26.489Z,72.84
2023-02-19T04:24:56.789Z,73.16
2023-02-19T04:27:25.048Z,73.57
2023-02-19T04:29:53.315Z,73.61
2023-02-19T04:32:21.747Z,73.91
2023-02-19T04:34:49.994Z,74.01
2023-02-19T04:37:18.250Z,74.47
2023-02-19T04:39:47.895Z,74.93
2023-02-19T04:42:16.394Z,75.32
2023-02-19T04:44:44.812Z,75.95
2023-02-19T04:47:13.089Z,76.23
2023-02-19T04:49:41.253Z,76.51
2023-02-19T04:52:09.400Z,76.72
2023-02-19T04:54:44.475Z,76.96
2023-02-19T04:57:14.047Z,76.99
2023-02-19T04:59:47.648Z,77.20
2023-02-19T05:02:18.981Z,77.35
2023-02-19T05:04:47.163Z,77.21
2023-02-19T05:07:16.328Z,77.23
2023-02-19T05:09:44.501Z,77.24
2023-02-19T05:12:14.065Z,77.57
2023-02-19T05:14:42.316Z,78.01
2023-02-19T05:17:10.499Z,78.21
2023-02-19T05:19:42.310Z,78.63
2023-02-19T05:22:29.573Z,79.45
2023-02-19T05:25:26.038Z,80.40
2023-02-19T05:28:15.665Z,80.96
2023-02-19T05:30:43.897Z,81.42
2023-02-19T05:33:12.083Z,81.59
2023-02-19T05:35:45.325Z,82.19
2023-02-19T05:38:13.699Z,82.43
2023-02-19T05:40:42.603Z,82.38
2023-02-19T05:43:14.856Z,82.46
2023-02-19T05:45:46.330Z,82.69
2023-02-19T05:48:15.681Z,83.23
2023-02-19T05:50:47.308Z,83.24
2023-02-19T05:53:19.261Z,83.55
2023-02-19T05:55:47.460Z,84.42
2023-02-19T05:58:18.031Z,84.31
2023-02-19T06:00:46.298Z,84.49
2023-02-19T06:03:14.522Z,84.68
2023-02-19T06:05:42.807Z,84.73
2023-02-19T06:08:12.189Z,84.78
2023-02-19T06:10:41.446Z,84.83
2023-02-19T06:13:12.359Z,84.79
2023-02-19T06:15:41.971Z,84.68
2023-02-19T06:18:10.241Z,84.70
2023-02-19T06:20:38.762Z,84.64
2023-02-19T06:23:07.030Z,84.54
2023-02-19T06:25:35.159Z,84.33
2023-02-19T06:28:03.274Z,84.40
2023-02-19T06:30:36.277Z,84.30
2023-02-19T06:33:07.944Z,84.28
2023-02-19T06:35:36.214Z,84.20
2023-02-19T06:42:23.232Z,83.79
2023-02-19T06:44:51.465Z,83.55
2023-02-19T06:47:24.324Z,83.19
2023-02-19T06:50:23.833Z,82.71
2023-02-19T06:52:56.689Z,82.07
2023-02-19T06:55:35.046Z,81.80
2023-02-19T06:58:08.941Z,81.41
2023-02-19T07:00:37.306Z,81.09
2023-02-19T07:03:05.736Z,80.61
2023-02-19T07:05:35.904Z,80.22
2023-02-19T07:08:06.031Z,79.77
2023-02-19T07:14:52.040Z,79.33
2023-02-19T07:21:38.528Z,78.42
2023-02-19T07:24:08.473Z,78.31
2023-02-19T07:26:37.087Z,78.26
2023-02-19T07:29:05.717Z,78.02
2023-02-19T07:31:34.017Z,77.24
2023-02-19T07:34:02.397Z,76.97
2023-02-19T07:36:30.588Z,76.93
2023-02-19T07:39:01.934Z,76.89
2023-02-19T07:41:33.638Z,77.68
2023-02-19T07:44:03.935Z,78.46
2023-02-19T07:46:32.572Z,78.30
2023-02-19T07:49:01.238Z,78.52
2023-02-19T07:51:30.581Z,79.19
2023-02-19T07:53:59.786Z,80.05
2023-02-19T07:56:28.984Z,80.96
2023-02-19T07:58:58.722Z,82.35
2023-02-19T08:01:40.760Z,83.40
2023-02-19T08:04:09.269Z,84.35
2023-02-19T08:06:37.639Z,85.34
2023-02-19T08:09:06.436Z,85.88
2023-02-19T08:11:52.432Z,86.82
2023-02-19T08:14:26.255Z,87.33
2023-02-19T08:16:54.874Z,87.82
2023-02-19T08:19:23.673Z,88.23
2023-02-19T08:21:53.668Z,88.55
2023-02-19T08:24:22.176Z,88.60
2023-02-19T08:26:50.390Z,88.96
2023-02-19T08:29:18.741Z,89.21
2023-02-19T08:31:48.598Z,89.46
2023-02-19T08:34:16.919Z,89.37
2023-02-19T08:36:45.454Z,89.63
2023-02-19T08:39:13.883Z,89.75
2023-02-19T08:41:42.148Z,90.03
2023-02-19T08:44:10.465Z,90.16
2023-02-19T08:46:39.143Z,90.31
2023-02-19T08:49:08.854Z,90.38
2023-02-19T08:51:37.133Z,90.39
2023-02-19T08:54:06.035Z,90.48
2023-02-19T08:56:34.335Z,90.73
2023-02-19T08:59:03.036Z,90.75
2023-02-19T09:01:31.313Z,90.31
2023-02-19T09:03:59.577Z,90.53
2023-02-19T09:06:29.252Z,90.39
2023-02-19T09:08:57.544Z,90.41
2023-02-19T09:11:25.800Z,90.27
2023-02-19T09:13:56.662Z,90.44
2023-02-19T09:16:24.976Z,90.41
2023-02-19T09:18:53.256Z,90.60
2023-02-19T09:21:21.544Z,90.47
2023-02-19T09:23:51.157Z,90.62
2023-02-19T09:26:19.363Z,90.71
2023-02-19T09:28:47.760Z,90.52
2023-02-19T09:31:17.413Z,90.44
2023-02-19T09:33:46.035Z,90.60
2023-02-19T09:36:17.151Z,90.36
2023-02-19T09:38:45.762Z,90.36
2023-02-19T09:41:23.740Z,90.22
2023-02-19T09:43:52.460Z,90.24
2023-02-19T09:46:30.242Z,90.08
2023-02-19T09:49:04.809Z,90.22
2023-02-19T09:51:35.686Z,90.30
2023-02-19T09:54:06.681Z,88.24
2023-02-19T09:56:37.171Z,86.82
2023-02-19T09:59:08.402Z,84.33
2023-02-19T10:01:40.783Z,83.62
2023-02-19T10:04:11.514Z,83.90
2023-02-19T10:06:40.223Z,84.33
2023-02-19T10:09:23.686Z,83.39
2023-02-19T10:11:57.033Z,82.54
2023-02-19T10:14:35.921Z,81.99
2023-02-19T10:17:06.498Z,81.38
2023-02-19T10:19:35.806Z,80.25
2023-02-19T10:22:05.466Z,79.24
2023-02-19T10:24:35.483Z,77.65
2023-02-19T10:27:11.570Z,75.45
2023-02-19T10:29:41.481Z,77.23
2023-02-19T10:32:21.243Z,76.23
2023-02-19T10:34:51.479Z,75.59
2023-02-19T10:37:20.988Z,75.19
2023-02-19T10:39:52.422Z,74.03
2023-02-19T10:42:24.979Z,73.27
2023-02-19T10:45:01.829Z,74.29
2023-02-19T10:47:33.052Z,72.57
2023-02-19T10:50:04.646Z,72.04
2023-02-19T10:52:37.061Z,71.07
2023-02-19T10:55:28.656Z,69.78
2023-02-19T10:57:59.470Z,69.33
2023-02-19T11:00:30.868Z,67.09
2023-02-19T11:03:21.151Z,67.73
2023-02-19T11:05:59.265Z,68.41
2023-02-19T11:08:32.807Z,66.78
2023-02-19T11:11:02.539Z,68.42
2023-02-19T11:13:38.331Z,68.65
2023-02-19T11:16:07.630Z,68.57
2023-02-19T11:18:37.373Z,67.76
2023-02-19T11:21:09.574Z,66.58
2023-02-19T11:23:45.422Z,66.18
2023-02-19T11:26:20.428Z,63.85
2023-02-19T11:28:59.552Z,64.29
2023-02-19T11:31:32.750Z,64.54
2023-02-19T11:34:05.483Z,65.40
2023-02-19T11:36:41.019Z,65.46
2023-02-19T11:39:24.143Z,64.59
2023-02-19T11:42:15.376Z,65.55
2023-02-19T11:45:04.644Z,65.19
2023-02-19T11:48:06.273Z,63.52
2023-02-19T11:50:49.868Z,65.06
2023-02-19T11:53:26.722Z,64.63
2023-02-19T11:56:10.073Z,63.75
2023-02-19T11:58:53.809Z,62.66
2023-02-19T12:01:32.168Z,61.91
2023-02-19T12:04:38.884Z,62.69
2023-02-19T12:07:20.118Z,59.66
2023-02-19T12:10:02.177Z,59.25
2023-02-19T12:12:49.085Z,61.14
2023-02-19T12:15:33.337Z,60.98
2023-02-19T12:18:41.459Z,61.62
2023-02-19T12:21:28.140Z,60.67
2023-02-19T12:24:10.984Z,61.35
2023-02-19T12:26:45.248Z,62.67
2023-02-19T12:29:32.882Z,62.76
2023-02-19T12:32:34.897Z,63.19
2023-02-19T12:35:55.492Z,63.64
2023-02-19T12:38:35.365Z,63.84
2023-02-19T12:41:32.406Z,62.93
2023-02-19T12:44:07.317Z,64.53
2023-02-19T12:46:40.628Z,63.18
2023-02-19T12:49:16.796Z,61.64
2023-02-19T12:51:50.166Z,60.39
2023-02-19T12:54:26.802Z,58.47
2023-02-19T12:57:03.475Z,61.30
2023-02-19T12:59:36.780Z,60.42
2023-02-19T13:02:16.846Z,59.32
2023-02-19T13:04:52.689Z,58.85
2023-02-19T13:07:27.145Z,59.04
2023-02-19T13:10:01.940Z,58.36
2023-02-19T13:12:34.672Z,60.97
2023-02-19T13:15:09.270Z,60.68
2023-02-19T13:17:44.570Z,62.50
2023-02-19T13:20:22.168Z,63.04
2023-02-19T13:23:20.103Z,63.29
2023-02-19T13:26:05.330Z,64.44
2023-02-19T13:28:59.645Z,64.12
2023-02-19T13:31:50.869Z,66.36
2023-02-19T13:34:32.826Z,68.68
2023-02-19T13:37:03.137Z,68.77
2023-02-19T13:39:33.261Z,68.50
2023-02-19T13:42:07.287Z,70.09
2023-02-19T13:44:39.028Z,70.60
2023-02-19T13:47:28.414Z,69.01
2023-02-19T13:50:06.850Z,70.30
2023-02-19T13:52:42.854Z,72.84
2023-02-19T13:55:52.192Z,70.34
2023-02-19T13:59:02.901Z,71.33
2023-02-19T14:02:04.985Z,75.70
2023-02-19T14:04:54.517Z,77.26
2023-02-19T14:07:56.814Z,79.74
2023-02-19T14:11:02.774Z,80.62
2023-02-19T14:14:06.803Z,81.10
2023-02-19T14:17:06.149Z,82.56
2023-02-19T14:19:54.097Z,83.65
2023-02-19T14:23:04.233Z,83.54
2023-02-19T14:25:41.350Z,83.05
2023-02-19T14:28:22.710Z,82.96
2023-02-19T14:30:59.172Z,83.20
2023-02-19T14:33:31.567Z,82.59
2023-02-19T14:36:06.384Z,78.91
2023-02-19T14:38:40.726Z,80.07
2023-02-19T14:41:15.165Z,77.80
2023-02-19T14:43:45.194Z,77.19
2023-02-19T14:46:23.569Z,78.87
2023-02-19T14:48:54.035Z,76.54
2023-02-19T14:51:32.188Z,76.86
2023-02-19T14:54:07.528Z,76.76
2023-02-19T14:56:38.255Z,77.03
2023-02-19T14:59:26.177Z,77.06
2023-02-19T15:02:05.785Z,78.87
2023-02-19T15:04:38.746Z,80.59
2023-02-19T15:07:11.100Z,82.07
2023-02-19T15:09:45.263Z,82.85
2023-02-19T15:12:21.601Z,82.57
2023-02-19T15:14:55.138Z,81.53
2023-02-19T15:17:30.051Z,81.32
2023-02-19T15:20:03.990Z,81.75
2023-02-19T15:22:35.383Z,81.12
2023-02-19T15:25:08.602Z,79.62
2023-02-19T15:27:40.114Z,79.80
2023-02-19T15:30:21.351Z,78.70
2023-02-19T15:32:58.673Z,78.40
2023-02-19T15:35:40.509Z,78.23
2023-02-19T15:38:15.148Z,77.45
2023-02-19T15:40:47.344Z,76.45
2023-02-19T15:43:25.082Z,76.29
2023-02-19T15:45:58.617Z,75.28
2023-02-19T15:48:36.895Z,74.53
2023-02-19T15:51:12.357Z,74.54
2023-02-19T15:53:49.680Z,74.59
2023-02-19T15:56:32.544Z,75.05
2023-02-19T15:59:06.745Z,74.84
2023-02-19T16:01:42.009Z,74.43
2023-02-19T16:04:16.486Z,74.54
2023-02-19T16:06:58.908Z,75.08
2023-02-19T16:09:34.742Z,75.18
2023-02-19T16:12:21.050Z,75.09
2023-02-19T16:14:53.865Z,75.33
2023-02-19T16:17:28.975Z,75.16
2023-02-19T16:20:02.762Z,76.16
2023-02-19T16:22:35.492Z,75.57
2023-02-19T16:25:09.305Z,75.31
2023-02-19T16:27:42.102Z,73.52
2023-02-19T16:30:28.681Z,74.60
2023-02-19T16:33:34.938Z,75.02
2023-02-19T16:36:30.481Z,74.17
2023-02-19T16:39:19.739Z,74.60
2023-02-19T16:42:20.111Z,74.33
2023-02-19T16:44:51.120Z,76.39
2023-02-19T16:47:31.432Z,76.96
2023-02-19T16:50:08.105Z,77.87
2023-02-19T16:52:42.918Z,78.52
2023-02-19T16:55:16.491Z,76.27
2023-02-19T16:57:50.941Z,77.96
2023-02-19T17:00:23.065Z,77.57
2023-02-19T17:02:55.730Z,78.04
2023-02-19T17:05:27.871Z,77.17
2023-02-19T17:07:59.418Z,77.03
2023-02-19T17:10:30.505Z,75.72
2023-02-19T17:13:00.124Z,76.28
2023-02-19T17:15:31.202Z,75.82
2023-02-19T17:18:01.692Z,75.83
2023-02-19T17:20:38.740Z,75.76
2023-02-19T17:23:19.677Z,75.47
2023-02-19T17:25:49.528Z,74.81
2023-02-19T17:28:20.210Z,76.14
2023-02-19T17:30:50.602Z,74.89
2023-02-19T17:33:22.167Z,74.74
2023-02-19T17:35:51.666Z,74.48
2023-02-19T17:38:23.489Z,74.29
2023-02-19T17:41:00.882Z,72.94
2023-02-19T17:43:32.821Z,73.51
2023-02-19T17:46:02.554Z,74.47
2023-02-19T17:48:33.956Z,75.12
2023-02-19T17:51:05.544Z,75.54
2023-02-19T17:53:37.413Z,77.54
2023-02-19T17:56:08.118Z,78.42
2023-02-19T17:58:39.056Z,78.68
2023-02-19T18:01:10.901Z,79.96
2023-02-19T18:03:42.481Z,78.91
2023-02-19T18:06:12.151Z,78.78
2023-02-19T18:08:50.103Z,78.77
2023-02-19T18:11:20.480Z,79.13
2023-02-19T18:13:51.157Z,78.95
2023-02-19T18:16:21.340Z,79.00
2023-02-19T18:18:51.630Z,79.13
2023-02-19T18:21:27.168Z,78.96
2023-02-19T18:23:59.301Z,78.93
2023-02-19T18:26:29.051Z,79.57
2023-02-19T18:29:00.178Z,79.50
2023-02-19T18:31:40.015Z,79.86
2023-02-19T18:34:19.474Z,79.88
2023-02-19T18:36:50.498Z,80.12
2023-02-19T18:39:23.628Z,80.62
2023-02-19T18:41:54.489Z,80.67
2023-02-19T18:44:27.918Z,80.73
2023-02-19T18:47:01.274Z,81.08
2023-02-19T18:49:32.964Z,81.19
2023-02-19T18:52:12.921Z,81.51
2023-02-19T18:54:44.781Z,81.21
2023-02-19T18:57:15.609Z,81.45
2023-02-19T18:59:46.568Z,81.32
2023-02-19T19:02:18.089Z,81.66
2023-02-19T19:04:59.043Z,81.65
2023-02-19T19:07:31.136Z,81.54
2023-02-19T19:10:06.717Z,81.04
2023-02-19T19:12:37.905Z,81.44
2023-02-19T19:15:11.973Z,81.77
2023-02-19T19:17:42.277Z,81.86
2023-02-19T19:20:13.164Z,81.93
2023-02-19T19:22:46.457Z,81.53
2023-02-19T19:25:18.791Z,81.35
2023-02-19T19:27:52.195Z,80.75
2023-02-19T19:30:23.178Z,80.27
2023-02-19T19:32:54.313Z,80.12
2023-02-19T19:35:25.093Z,79.65
2023-02-19T19:37:56.962Z,78.88
2023-02-19T19:40:31.617Z,79.01
2023-02-19T19:43:01.946Z,78.93
2023-02-19T19:45:32.681Z,77.61
2023-02-19T19:48:02.474Z,77.80
2023-02-19T19:50:33.512Z,77.53
2023-02-19T19:53:03.526Z,76.67
2023-02-19T19:55:38.136Z,76.94
2023-02-19T19:58:08.690Z,77.24
2023-02-19T20:00:39.779Z,76.74
2023-02-19T20:03:10.496Z,76.67
2023-02-19T20:05:41.092Z,76.81
2023-02-19T20:08:11.306Z,76.12
2023-02-19T20:10:45.415Z,75.86
2023-02-19T20:13:19.997Z,75.62
2023-02-19T20:15:53.944Z,75.53
2023-02-19T20:18:26.110Z,74.95
2023-02-19T20:20:58.884Z,74.74
2023-02-19T20:23:37.534Z,75.62
2023-02-19T20:26:11.164Z,75.28
2023-02-19T20:28:48.728Z,75.39
2023-02-19T20:31:19.391Z,75.18
2023-02-19T20:33:52.664Z,75.21
2023-02-19T20:36:24.548Z,74.90
2023-02-19T20:38:55.030Z,75.10
2023-02-19T20:41:29.867Z,75.12
2023-02-19T20:44:01.320Z,75.01
2023-02-19T20:46:33.083Z,74.27
2023-02-19T20:49:03.860Z,73.65
2023-02-19T20:51:34.054Z,73.36
2023-02-19T20:54:08.045Z,73.37
2023-02-19T20:56:41.812Z,73.67
2023-02-19T20:59:13.586Z,73.49
2023-02-19T21:01:44.106Z,74.15
2023-02-19T21:04:14.902Z,74.64
2023-02-19T21:06:44.422Z,74.98
2023-02-19T21:09:15.590Z,75.33
2023-02-19T21:11:50.216Z,75.70
2023-02-19T21:14:21.461Z,76.08
2023-02-19T21:16:51.942Z,76.14
2023-02-19T21:19:22.428Z,76.00
2023-02-19T21:21:51.917Z,75.58
2023-02-19T21:24:22.253Z,76.06
2023-02-19T21:26:55.174Z,75.98
2023-02-19T21:29:25.499Z,76.06
2023-02-19T21:31:57.378Z,76.10
2023-02-19T21:34:29.267Z,76.58
2023-02-19T21:37:00.872Z,76.96
2023-02-19T21:39:31.472Z,77.41
2023-02-19T21:42:04.533Z,77.64
2023-02-19T21:44:35.170Z,77.82
2023-02-19T21:47:04.714Z,77.95
2023-02-19T21:49:33.481Z,78.26
2023-02-19T21:52:03.611Z,78.46
2023-02-19T21:54:31.826Z,78.39
2023-02-19T21:57:04.475Z,78.29
2023-02-19T21:59:32.784Z,78.51
2023-02-19T22:02:01.241Z,78.73
2023-02-19T22:04:30.538Z,78.97
2023-02-19T22:06:59.006Z,78.70
2023-02-19T22:09:31.070Z,79.01
2023-02-19T22:11:59.368Z,79.09
2023-02-19T22:14:32.517Z,79.06
2023-02-19T22:17:00.788Z,78.76
2023-02-19T22:19:29.099Z,78.23
2023-02-19T22:21:59.459Z,78.29
2023-02-19T22:24:27.730Z,77.76
2023-02-19T22:27:01.091Z,77.10
2023-02-19T22:29:34.804Z,77.24
2023-02-19T22:32:05.248Z,77.05
2023-02-19T22:34:39.500Z,77.18
2023-02-19T22:37:11.931Z,76.31
2023-02-19T22:39:40.188Z,76.57
2023-02-19T22:42:12.006Z,76.63
2023-02-19T22:44:44.193Z,76.04
2023-02-19T22:47:12.437Z,76.12
2023-02-19T22:49:43.914Z,76.31
2023-02-19T22:52:12.613Z,76.24
2023-02-19T22:54:41.997Z,76.53
2023-02-19T22:57:10.201Z,77.22
2023-02-19T22:59:44.740Z,77.11
2023-02-19T23:02:13.192Z,77.95
2023-02-19T23:04:45.414Z,77.85
2023-02-19T23:07:13.631Z,78.34
2023-02-19T23:09:43.932Z,78.82
2023-02-19T23:12:12.842Z,78.98
2023-02-19T23:14:48.059Z,78.82
2023-02-19T23:17:17.588Z,79.12
2023-02-19T23:19:47.177Z,79.58
2023-02-19T23:22:18.720Z,79.65
2023-02-19T23:25:11.565Z,79.94
2023-02-19T23:27:43.049Z,80.08
2023-02-19T23:30:11.859Z,80.03
2023-02-19T23:32:43.515Z,80.31
2023-02-19T23:35:13.833Z,80.54
2023-02-19T23:37:42.017Z,80.40
2023-02-19T23:40:14.071Z,80.45
2023-02-19T23:42:43.256Z,80.44
2023-02-19T23:45:11.376Z,80.33
2023-02-19T23:47:39.528Z,80.23
2023-02-19T23:50:38.157Z,79.70
2023-02-19T23:53:14.382Z,79.58
2023-02-19T23:56:09.001Z,79.47
2023-02-19T23:58:42.419Z,79.65
